sensor_id;sensor_type;location;lat;lon;timestamp;pressure;altitude;pressure_sealevel;temperature;humidity
79285;BME280;68734;50.452;11.636;2023-04-05T00:00:57;96165.72;;;-6.06;84.62
79285;BME280;68734;50.452;11.636;2023-04-05T00:03:25;96162.69;;;-6.11;85.16
79285;BME280;68734;50.452;11.636;2023-04-05T00:05:51;96162.16;;;-6.14;85.44
79285;BME280;68734;50.452;11.636;2023-04-05T00:08:19;96160.78;;;-6.18;85.40
79285;BME280;68734;50.452;11.636;2023-04-05T00:10:53;96153.47;;;-6.25;85.74
79285;BME280;68734;50.452;11.636;2023-04-05T00:13:20;96149.16;;;-6.26;85.77
79285;BME280;68734;50.452;11.636;2023-04-05T00:15:48;96153.59;;;-6.26;85.82
79285;BME280;68734;50.452;11.636;2023-04-05T00:18:14;96159.97;;;-6.29;85.72
79285;BME280;68734;50.452;11.636;2023-04-05T00:20:48;96150.03;;;-6.35;85.97
79285;BME280;68734;50.452;11.636;2023-04-05T00:23:14;96145.59;;;-6.44;86.13
79285;BME280;68734;50.452;11.636;2023-04-05T00:25:43;96161.09;;;-6.41;86.04
79285;BME280;68734;50.452;11.636;2023-04-05T00:28:09;96148.78;;;-6.50;86.03
79285;BME280;68734;50.452;11.636;2023-04-05T00:30:35;96149.78;;;-6.51;86.70
79285;BME280;68734;50.452;11.636;2023-04-05T00:33:00;96149.22;;;-6.45;86.35
79285;BME280;68734;50.452;11.636;2023-04-05T00:35:29;96125.97;;;-6.59;86.35
79285;BME280;68734;50.452;11.636;2023-04-05T00:37:59;96136.91;;;-6.54;86.67
79285;BME280;68734;50.452;11.636;2023-04-05T00:40:25;96145.03;;;-6.57;86.53
79285;BME280;68734;50.452;11.636;2023-04-05T00:42:50;96140.09;;;-6.60;86.25
79285;BME280;68734;50.452;11.636;2023-04-05T00:45:16;96136.91;;;-6.64;86.88
79285;BME280;68734;50.452;11.636;2023-04-05T00:47:41;96145.03;;;-6.57;86.92
79285;BME280;68734;50.452;11.636;2023-04-05T00:50:11;96141.72;;;-6.59;87.33
79285;BME280;68734;50.452;11.636;2023-04-05T00:52:38;96135.09;;;-6.64;87.04
79285;BME280;68734;50.452;11.636;2023-04-05T00:55:07;96130.13;;;-6.67;87.25
79285;BME280;68734;50.452;11.636;2023-04-05T00:57:34;96137.31;;;-6.69;87.08
79285;BME280;68734;50.452;11.636;2023-04-05T01:00:04;96133.31;;;-6.73;87.38
79285;BME280;68734;50.452;11.636;2023-04-05T01:02:47;96135.25;;;-6.75;87.34
79285;BME280;68734;50.452;11.636;2023-04-05T01:05:37;96129.59;;;-6.80;87.39
79285;BME280;68734;50.452;11.636;2023-04-05T01:08:34;96124.75;;;-6.85;87.90
79285;BME280;68734;50.452;11.636;2023-04-05T01:11:03;96128.50;;;-6.87;87.19
79285;BME280;68734;50.452;11.636;2023-04-05T01:13:29;96118.25;;;-6.90;87.42
79285;BME280;68734;50.452;11.636;2023-04-05T01:15:55;96108.72;;;-6.91;87.64
79285;BME280;68734;50.452;11.636;2023-04-05T01:18:20;96121.31;;;-6.85;87.50
79285;BME280;68734;50.452;11.636;2023-04-05T01:21:00;96107.75;;;-6.90;87.91
79285;BME280;68734;50.452;11.636;2023-04-05T01:29:26;96107.47;;;-6.87;86.61
79285;BME280;68734;50.452;11.636;2023-04-05T01:35:31;96116.03;;;-6.95;86.75
79285;BME280;68734;50.452;11.636;2023-04-05T01:38:06;96105.25;;;-6.92;87.34
79285;BME280;68734;50.452;11.636;2023-04-05T01:40:35;96099.16;;;-6.92;87.36
79285;BME280;68734;50.452;11.636;2023-04-05T01:43:12;96101.09;;;-6.94;87.41
79285;BME280;68734;50.452;11.636;2023-04-05T01:45:38;96090.47;;;-7.03;87.57
79285;BME280;68734;50.452;11.636;2023-04-05T01:48:06;96103.34;;;-6.99;87.36
79285;BME280;68734;50.452;11.636;2023-04-05T01:50:31;96099.88;;;-7.00;87.42
79285;BME280;68734;50.452;11.636;2023-04-05T01:52:57;96099.16;;;-7.02;87.42
79285;BME280;68734;50.452;11.636;2023-04-05T01:55:22;96103.59;;;-7.03;87.85
79285;BME280;68734;50.452;11.636;2023-04-05T01:57:48;96080.66;;;-7.10;87.90
79285;BME280;68734;50.452;11.636;2023-04-05T02:00:13;96093.34;;;-7.06;87.48
79285;BME280;68734;50.452;11.636;2023-04-05T02:02:38;96080.78;;;-7.12;87.90
79285;BME280;68734;50.452;11.636;2023-04-05T02:05:04;96080.09;;;-7.14;88.09
79285;BME280;68734;50.452;11.636;2023-04-05T02:07:30;96087.28;;;-7.06;87.75
79285;BME280;68734;50.452;11.636;2023-04-05T02:09:55;96081.47;;;-7.10;87.58
79285;BME280;68734;50.452;11.636;2023-04-05T02:12:20;96087.16;;;-7.05;87.63
79285;BME280;68734;50.452;11.636;2023-04-05T02:14:46;96090.03;;;-7.08;87.49
79285;BME280;68734;50.452;11.636;2023-04-05T02:17:12;96084.25;;;-7.11;88.17
79285;BME280;68734;50.452;11.636;2023-04-05T02:19:37;96090.03;;;-7.08;87.42
79285;BME280;68734;50.452;11.636;2023-04-05T02:22:10;96076.25;;;-7.19;88.21
79285;BME280;68734;50.452;11.636;2023-04-05T02:24:41;96077.06;;;-7.19;87.67
79285;BME280;68734;50.452;11.636;2023-04-05T02:27:09;96087.03;;;-7.13;87.17
79285;BME280;68734;50.452;11.636;2023-04-05T02:29:34;96085.34;;;-7.14;86.78
79285;BME280;68734;50.452;11.636;2023-04-05T02:32:00;96088.94;;;-7.15;86.64
79285;BME280;68734;50.452;11.636;2023-04-05T02:34:26;96075.94;;;-7.26;86.65
79285;BME280;68734;50.452;11.636;2023-04-05T02:36:52;96087.44;;;-7.27;86.85
79285;BME280;68734;50.452;11.636;2023-04-05T02:39:18;96096.69;;;-7.33;87.31
79285;BME280;68734;50.452;11.636;2023-04-05T02:41:44;96088.38;;;-7.38;87.73
79285;BME280;68734;50.452;11.636;2023-04-05T02:44:10;96084.66;;;-7.35;87.53
79285;BME280;68734;50.452;11.636;2023-04-05T02:46:40;96090.88;;;-7.36;87.36
79285;BME280;68734;50.452;11.636;2023-04-05T02:49:06;96084.53;;;-7.44;87.37
79285;BME280;68734;50.452;11.636;2023-04-05T02:51:31;96076.91;;;-7.47;87.62
79285;BME280;68734;50.452;11.636;2023-04-05T02:54:00;96081.59;;;-7.40;87.71
79285;BME280;68734;50.452;11.636;2023-04-05T02:56:27;96085.91;;;-7.39;87.94
79285;BME280;68734;50.452;11.636;2023-04-05T02:58:54;96081.16;;;-7.46;87.94
79285;BME280;68734;50.452;11.636;2023-04-05T03:01:19;96078.28;;;-7.43;87.97
79285;BME280;68734;50.452;11.636;2023-04-05T03:03:46;96080.22;;;-7.45;87.77
79285;BME280;68734;50.452;11.636;2023-04-05T03:06:14;96087.66;;;-7.50;87.77
79285;BME280;68734;50.452;11.636;2023-04-05T03:08:41;96081.72;;;-7.52;87.66
79285;BME280;68734;50.452;11.636;2023-04-05T03:11:11;96085.31;;;-7.53;87.93
79285;BME280;68734;50.452;11.636;2023-04-05T03:13:37;96079.09;;;-7.52;87.51
79285;BME280;68734;50.452;11.636;2023-04-05T03:16:02;96075.09;;;-7.56;87.50
79285;BME280;68734;50.452;11.636;2023-04-05T03:18:31;96071.50;;;-7.55;88.05
79285;BME280;68734;50.452;11.636;2023-04-05T03:20:57;96081.72;;;-7.52;88.12
79285;BME280;68734;50.452;11.636;2023-04-05T03:23:31;96062.94;;;-7.57;88.30
79285;BME280;68734;50.452;11.636;2023-04-05T03:26:00;96070.41;;;-7.52;88.33
79285;BME280;68734;50.452;11.636;2023-04-05T03:28:28;96069.28;;;-7.50;88.61
79285;BME280;68734;50.452;11.636;2023-04-05T03:30:57;96067.78;;;-7.52;88.33
79285;BME280;68734;50.452;11.636;2023-04-05T03:33:22;96070.69;;;-7.46;88.24
79285;BME280;68734;50.452;11.636;2023-04-05T03:35:50;96058.53;;;-7.47;87.81
79285;BME280;68734;50.452;11.636;2023-04-05T03:38:16;96069.97;;;-7.48;87.28
79285;BME280;68734;50.452;11.636;2023-04-05T03:40:44;96068.75;;;-7.53;87.67
79285;BME280;68734;50.452;11.636;2023-04-05T03:43:11;96071.38;;;-7.53;87.15
79285;BME280;68734;50.452;11.636;2023-04-05T03:45:41;96076.75;;;-7.55;87.45
79285;BME280;68734;50.452;11.636;2023-04-05T03:48:07;96065.28;;;-7.54;87.61
79285;BME280;68734;50.452;11.636;2023-04-05T03:50:32;96067.91;;;-7.54;87.66
79285;BME280;68734;50.452;11.636;2023-04-05T03:52:58;96064.34;;;-7.53;87.66
79285;BME280;68734;50.452;11.636;2023-04-05T03:55:23;96067.66;;;-7.51;87.51
79285;BME280;68734;50.452;11.636;2023-04-05T03:57:51;96083.41;;;-7.41;87.74
79285;BME280;68734;50.452;11.636;2023-04-05T04:00:17;96077.75;;;-7.36;87.32
79285;BME280;68734;50.452;11.636;2023-04-05T04:02:46;96080.38;;;-7.36;86.86
79285;BME280;68734;50.452;11.636;2023-04-05T04:05:13;96071.81;;;-7.38;87.34
79285;BME280;68734;50.452;11.636;2023-04-05T04:07:43;96077.88;;;-7.28;87.52
79285;BME280;68734;50.452;11.636;2023-04-05T04:10:15;96072.63;;;-7.28;87.08
79285;BME280;68734;50.452;11.636;2023-04-05T04:12:42;96070.44;;;-7.23;86.94
79285;BME280;68734;50.452;11.636;2023-04-05T04:15:08;96075.81;;;-7.15;86.70
79285;BME280;68734;50.452;11.636;2023-04-05T04:17:35;96084.53;;;-7.05;86.68
79285;BME280;68734;50.452;11.636;2023-04-05T04:20:01;96084.66;;;-6.96;86.59
79285;BME280;68734;50.452;11.636;2023-04-05T04:22:34;96073.47;;;-6.89;86.69
79285;BME280;68734;50.452;11.636;2023-04-05T04:25:04;96083.66;;;-6.76;86.65
79285;BME280;68734;50.452;11.636;2023-04-05T04:27:30;96078.28;;;-6.74;86.43
79285;BME280;68734;50.452;11.636;2023-04-05T04:29:56;96085.59;;;-6.68;86.24
79285;BME280;68734;50.452;11.636;2023-04-05T04:32:29;96081.84;;;-6.66;86.46
79285;BME280;68734;50.452;11.636;2023-04-05T04:35:14;96079.66;;;-6.60;85.90
79285;BME280;68734;50.452;11.636;2023-04-05T04:37:59;96082.97;;;-6.58;85.87
79285;BME280;68734;50.452;11.636;2023-04-05T04:43:07;96076.72;;;-6.57;85.60
79285;BME280;68734;50.452;11.636;2023-04-05T04:45:48;96088.34;;;-6.50;85.29
79285;BME280;68734;50.452;11.636;2023-04-05T04:48:15;96085.28;;;-6.46;85.69
79285;BME280;68734;50.452;11.636;2023-04-05T04:50:44;96081.25;;;-6.40;86.04
79285;BME280;68734;50.452;11.636;2023-04-05T04:53:10;96078.63;;;-6.40;85.51
79285;BME280;68734;50.452;11.636;2023-04-05T04:55:40;96076.41;;;-6.35;86.04
79285;BME280;68734;50.452;11.636;2023-04-05T04:58:09;96084.00;;;-6.32;85.74
79285;BME280;68734;50.452;11.636;2023-04-05T05:00:41;96074.59;;;-6.34;85.63
79285;BME280;68734;50.452;11.636;2023-04-05T05:03:08;96079.72;;;-6.33;85.60
79285;BME280;68734;50.452;11.636;2023-04-05T05:05:41;96070.84;;;-6.32;86.02
79285;BME280;68734;50.452;11.636;2023-04-05T05:08:06;96072.75;;;-6.24;85.78
79285;BME280;68734;50.452;11.636;2023-04-05T05:10:32;96077.19;;;-6.25;85.13
79285;BME280;68734;50.452;11.636;2023-04-05T05:12:57;96078.28;;;-6.17;85.26
79285;BME280;68734;50.452;11.636;2023-04-05T05:15:22;96078.81;;;-6.14;84.93
79285;BME280;68734;50.452;11.636;2023-04-05T05:17:48;96084.28;;;-5.97;84.63
79285;BME280;68734;50.452;11.636;2023-04-05T05:20:17;96073.19;;;-5.46;82.16
79285;BME280;68734;50.452;11.636;2023-04-05T05:22:42;96076.22;;;-5.05;80.66
79285;BME280;68734;50.452;11.636;2023-04-05T05:25:08;96073.00;;;-4.02;77.38
79285;BME280;68734;50.452;11.636;2023-04-05T05:27:34;96061.38;;;-3.41;75.01
79285;BME280;68734;50.452;11.636;2023-04-05T05:30:06;96062.38;;;-3.17;72.93
79285;BME280;68734;50.452;11.636;2023-04-05T05:32:31;96067.06;;;-2.94;72.30
79285;BME280;68734;50.452;11.636;2023-04-05T05:34:57;96060.41;;;-2.08;68.92
79285;BME280;68734;50.452;11.636;2023-04-05T05:37:30;96066.56;;;-1.37;66.25
79285;BME280;68734;50.452;11.636;2023-04-05T05:39:55;96070.44;;;-1.48;65.66
79285;BME280;68734;50.452;11.636;2023-04-05T05:42:24;96059.16;;;-1.81;66.68
79285;BME280;68734;50.452;11.636;2023-04-05T05:44:52;96061.53;;;-1.55;65.51
79285;BME280;68734;50.452;11.636;2023-04-05T05:47:22;96062.53;;;-0.93;64.15
79285;BME280;68734;50.452;11.636;2023-04-05T05:49:48;96054.50;;;-0.85;63.54
79285;BME280;68734;50.452;11.636;2023-04-05T05:52:13;96072.03;;;-1.30;64.44
79285;BME280;68734;50.452;11.636;2023-04-05T05:54:39;96063.25;;;-1.78;66.67
79285;BME280;68734;50.452;11.636;2023-04-05T05:57:05;96065.25;;;-1.81;66.73
79285;BME280;68734;50.452;11.636;2023-04-05T05:59:32;96060.69;;;-2.03;67.49
79285;BME280;68734;50.452;11.636;2023-04-05T06:01:58;96067.94;;;-1.89;67.95
79285;BME280;68734;50.452;11.636;2023-04-05T06:04:23;96062.19;;;-1.92;67.55
79285;BME280;68734;50.452;11.636;2023-04-05T06:06:49;96069.59;;;-1.88;68.02
79285;BME280;68734;50.452;11.636;2023-04-05T06:09:19;96068.34;;;-2.08;68.26
79285;BME280;68734;50.452;11.636;2023-04-05T06:11:45;96061.00;;;-1.90;67.74
79285;BME280;68734;50.452;11.636;2023-04-05T06:14:13;96054.72;;;-1.18;65.72
79285;BME280;68734;50.452;11.636;2023-04-05T06:16:39;96055.16;;;0.08;62.10
79285;BME280;68734;50.452;11.636;2023-04-05T06:19:07;96053.19;;;0.76;58.98
79285;BME280;68734;50.452;11.636;2023-04-05T06:21:32;96050.94;;;0.43;58.70
79285;BME280;68734;50.452;11.636;2023-04-05T06:24:00;96068.47;;;0.23;59.55
79285;BME280;68734;50.452;11.636;2023-04-05T06:26:26;96061.13;;;-0.05;60.60
79285;BME280;68734;50.452;11.636;2023-04-05T06:28:54;96058.78;;;-0.38;62.60
79285;BME280;68734;50.452;11.636;2023-04-05T06:31:25;96049.72;;;-0.29;61.40
79285;BME280;68734;50.452;11.636;2023-04-05T06:33:58;96055.53;;;-0.48;63.79
79285;BME280;68734;50.452;11.636;2023-04-05T06:36:26;96061.47;;;-0.08;62.96
79285;BME280;68734;50.452;11.636;2023-04-05T06:38:51;96054.31;;;-0.23;62.88
79285;BME280;68734;50.452;11.636;2023-04-05T06:41:17;96067.09;;;-0.26;63.61
79285;BME280;68734;50.452;11.636;2023-04-05T06:43:43;96058.03;;;0.06;62.03
79285;BME280;68734;50.452;11.636;2023-04-05T06:46:10;96056.53;;;-0.11;62.36
79285;BME280;68734;50.452;11.636;2023-04-05T06:48:37;96070.09;;;-0.44;62.64
79285;BME280;68734;50.452;11.636;2023-04-05T06:51:04;96064.00;;;-0.30;61.55
79285;BME280;68734;50.452;11.636;2023-04-05T06:53:29;96057.81;;;-0.07;61.18
79285;BME280;68734;50.452;11.636;2023-04-05T06:55:57;96059.13;;;0.27;60.07
79285;BME280;68734;50.452;11.636;2023-04-05T06:58:23;96054.69;;;0.34;59.25
79285;BME280;68734;50.452;11.636;2023-04-05T07:00:49;96059.63;;;0.52;57.14
79285;BME280;68734;50.452;11.636;2023-04-05T07:03:15;96057.53;;;0.47;57.60
79285;BME280;68734;50.452;11.636;2023-04-05T07:05:53;96053.63;;;0.28;57.40
79285;BME280;68734;50.452;11.636;2023-04-05T07:08:20;96057.63;;;0.09;56.58
79285;BME280;68734;50.452;11.636;2023-04-05T07:10:46;96059.75;;;-0.54;56.85
79285;BME280;68734;50.452;11.636;2023-04-05T07:13:14;96063.69;;;-0.73;56.45
79285;BME280;68734;50.452;11.636;2023-04-05T07:15:42;96066.41;;;-0.81;56.60
79285;BME280;68734;50.452;11.636;2023-04-05T07:18:07;96059.56;;;-0.98;57.71
79285;BME280;68734;50.452;11.636;2023-04-05T07:20:33;96064.16;;;-0.92;56.93
79285;BME280;68734;50.452;11.636;2023-04-05T07:22:59;96063.63;;;-0.65;58.29
79285;BME280;68734;50.452;11.636;2023-04-05T07:25:24;96065.78;;;-0.45;56.27
79285;BME280;68734;50.452;11.636;2023-04-05T07:27:52;96057.09;;;-0.54;55.61
79285;BME280;68734;50.452;11.636;2023-04-05T07:30:18;96052.66;;;-0.24;56.66
79285;BME280;68734;50.452;11.636;2023-04-05T07:32:45;96050.41;;;-0.12;56.27
79285;BME280;68734;50.452;11.636;2023-04-05T07:35:11;96046.38;;;-0.08;55.73
79285;BME280;68734;50.452;11.636;2023-04-05T07:37:41;96051.88;;;-0.09;55.13
79285;BME280;68734;50.452;11.636;2023-04-05T07:40:09;96054.44;;;-0.16;55.86
79285;BME280;68734;50.452;11.636;2023-04-05T07:42:38;96061.84;;;-0.11;57.41
79285;BME280;68734;50.452;11.636;2023-04-05T07:45:04;96054.13;;;-0.06;56.82
79285;BME280;68734;50.452;11.636;2023-04-05T07:47:32;96059.66;;;0.07;57.00
79285;BME280;68734;50.452;11.636;2023-04-05T07:49:58;96050.09;;;-0.02;56.93
79285;BME280;68734;50.452;11.636;2023-04-05T07:52:24;96054.88;;;0.17;54.95
79285;BME280;68734;50.452;11.636;2023-04-05T07:54:49;96050.94;;;0.43;56.34
79285;BME280;68734;50.452;11.636;2023-04-05T07:57:16;96051.75;;;0.58;53.14
79285;BME280;68734;50.452;11.636;2023-04-05T07:59:45;96051.91;;;0.72;50.83
79285;BME280;68734;50.452;11.636;2023-04-05T08:02:12;96060.03;;;0.85;48.87
79285;BME280;68734;50.452;11.636;2023-04-05T08:04:37;96060.38;;;0.97;51.16
79285;BME280;68734;50.452;11.636;2023-04-05T08:07:02;96067.66;;;1.10;47.38
79285;BME280;68734;50.452;11.636;2023-04-05T08:09:28;96055.56;;;1.07;47.99
79285;BME280;68734;50.452;11.636;2023-04-05T08:11:53;96057.78;;;1.04;46.24
79285;BME280;68734;50.452;11.636;2023-04-05T08:14:19;96059.41;;;0.83;45.37
79285;BME280;68734;50.452;11.636;2023-04-05T08:16:44;96058.66;;;0.89;46.82
79285;BME280;68734;50.452;11.636;2023-04-05T08:19:10;96057.31;;;1.15;45.70
79285;BME280;68734;50.452;11.636;2023-04-05T08:21:35;96062.00;;;1.34;45.41
79285;BME280;68734;50.452;11.636;2023-04-05T08:24:01;96058.81;;;1.46;46.06
79285;BME280;68734;50.452;11.636;2023-04-05T08:26:26;96052.22;;;1.42;45.39
79285;BME280;68734;50.452;11.636;2023-04-05T08:28:52;96053.69;;;1.23;45.35
79285;BME280;68734;50.452;11.636;2023-04-05T08:31:17;96053.09;;;1.06;44.73
79285;BME280;68734;50.452;11.636;2023-04-05T08:33:43;96049.75;;;0.82;45.35
79285;BME280;68734;50.452;11.636;2023-04-05T08:36:10;96056.84;;;1.11;46.36
79285;BME280;68734;50.452;11.636;2023-04-05T08:38:36;96053.72;;;1.08;44.53
79285;BME280;68734;50.452;11.636;2023-04-05T08:41:16;96055.63;;;1.14;45.53
79285;BME280;68734;50.452;11.636;2023-04-05T08:43:54;96048.03;;;0.89;46.25
79285;BME280;68734;50.452;11.636;2023-04-05T08:46:22;96048.06;;;1.11;46.34
79285;BME280;68734;50.452;11.636;2023-04-05T08:48:51;96058.41;;;1.06;45.69
79285;BME280;68734;50.452;11.636;2023-04-05T08:51:20;96061.41;;;1.17;47.24
79285;BME280;68734;50.452;11.636;2023-04-05T08:53:51;96054.56;;;1.30;44.63
79285;BME280;68734;50.452;11.636;2023-04-05T08:56:30;96052.28;;;1.48;46.55
79285;BME280;68734;50.452;11.636;2023-04-05T08:59:04;96040.31;;;1.37;46.49
79285;BME280;68734;50.452;11.636;2023-04-05T09:01:31;96045.84;;;1.64;44.40
79285;BME280;68734;50.452;11.636;2023-04-05T09:04:05;96040.75;;;1.91;45.28
79285;BME280;68734;50.452;11.636;2023-04-05T09:06:31;96042.63;;;1.97;44.25
79285;BME280;68734;50.452;11.636;2023-04-05T09:08:59;96048.19;;;2.02;44.01
79285;BME280;68734;50.452;11.636;2023-04-05T09:11:26;96046.56;;;2.01;42.11
79285;BME280;68734;50.452;11.636;2023-04-05T09:13:54;96040.03;;;2.10;42.67
79285;BME280;68734;50.452;11.636;2023-04-05T09:16:20;96047.13;;;2.25;42.89
79285;BME280;68734;50.452;11.636;2023-04-05T09:18:46;96034.03;;;2.30;43.04
79285;BME280;68734;50.452;11.636;2023-04-05T09:21:13;96047.41;;;2.08;41.67
79285;BME280;68734;50.452;11.636;2023-04-05T09:23:50;96022.88;;;1.56;42.76
79285;BME280;68734;50.452;11.636;2023-04-05T09:26:23;96053.78;;;1.79;42.32
79285;BME280;68734;50.452;11.636;2023-04-05T09:28:48;96049.44;;;2.06;41.38
79285;BME280;68734;50.452;11.636;2023-04-05T09:31:36;96043.97;;;1.86;42.22
79285;BME280;68734;50.452;11.636;2023-04-05T09:34:05;96038.25;;;1.83;41.94
79285;BME280;68734;50.452;11.636;2023-04-05T09:36:35;96040.84;;;1.76;44.27
79285;BME280;68734;50.452;11.636;2023-04-05T09:39:08;96048.19;;;2.02;41.92
79285;BME280;68734;50.452;11.636;2023-04-05T09:41:35;96038.88;;;2.19;41.71
79285;BME280;68734;50.452;11.636;2023-04-05T09:44:01;96042.03;;;2.36;41.88
79285;BME280;68734;50.452;11.636;2023-04-05T09:49:00;96049.31;;;2.49;41.65
79285;BME280;68734;50.452;11.636;2023-04-05T09:51:33;96035.25;;;2.75;41.28
79285;BME280;68734;50.452;11.636;2023-04-05T09:54:07;96042.97;;;3.05;40.64
79285;BME280;68734;50.452;11.636;2023-04-05T09:56:35;96032.16;;;2.72;38.83
79285;BME280;68734;50.452;11.636;2023-04-05T10:01:33;96039.19;;;1.47;41.74
79285;BME280;68734;50.452;11.636;2023-04-05T10:03:59;96028.91;;;1.01;43.10
79285;BME280;68734;50.452;11.636;2023-04-05T10:06:39;96036.25;;;1.42;43.34
79285;BME280;68734;50.452;11.636;2023-04-05T10:09:06;96040.81;;;1.05;44.35
79285;BME280;68734;50.452;11.636;2023-04-05T10:11:33;96016.81;;;1.69;44.42
79285;BME280;68734;50.452;11.636;2023-04-05T10:14:08;96026.56;;;1.84;41.67
79285;BME280;68734;50.452;11.636;2023-04-05T10:16:44;96026.31;;;1.78;42.12
79285;BME280;68734;50.452;11.636;2023-04-05T10:19:26;96031.44;;;1.30;42.28
79285;BME280;68734;50.452;11.636;2023-04-05T10:21:54;96029.81;;;1.29;44.04
79285;BME280;68734;50.452;11.636;2023-04-05T10:25:05;96023.13;;;1.90;43.93
79285;BME280;68734;50.452;11.636;2023-04-05T10:27:30;96028.13;;;2.06;41.30
79285;BME280;68734;50.452;11.636;2023-04-05T10:30:05;96030.09;;;1.91;41.03
79285;BME280;68734;50.452;11.636;2023-04-05T10:35:27;96019.78;;;2.51;41.81
79285;BME280;68734;50.452;11.636;2023-04-05T10:40:41;96021.03;;;3.23;41.46
79285;BME280;68734;50.452;11.636;2023-04-05T10:43:13;96020.84;;;3.71;40.89
79285;BME280;68734;50.452;11.636;2023-04-05T10:45:41;96011.38;;;3.49;38.82
79285;BME280;68734;50.452;11.636;2023-04-05T10:48:17;96018.66;;;2.80;38.54
79285;BME280;68734;50.452;11.636;2023-04-05T10:50:46;96016.44;;;2.42;39.01
79285;BME280;68734;50.452;11.636;2023-04-05T10:53:12;96014.53;;;2.71;40.11
79285;BME280;68734;50.452;11.636;2023-04-05T10:55:40;96007.53;;;2.70;40.13
79285;BME280;68734;50.452;11.636;2023-04-05T10:58:08;96013.03;;;2.20;40.69
79285;BME280;68734;50.452;11.636;2023-04-05T11:00:37;96017.66;;;2.33;41.36
79285;BME280;68734;50.452;11.636;2023-04-05T11:03:02;96006.69;;;1.86;40.66
79285;BME280;68734;50.452;11.636;2023-04-05T11:05:32;96005.44;;;2.58;40.43
79285;BME280;68734;50.452;11.636;2023-04-05T11:08:08;96001.38;;;2.69;40.02
79285;BME280;68734;50.452;11.636;2023-04-05T11:10:37;95997.41;;;3.33;40.04
79285;BME280;68734;50.452;11.636;2023-04-05T11:13:05;95995.09;;;2.97;39.30
79285;BME280;68734;50.452;11.636;2023-04-05T11:15:31;95995.25;;;2.69;39.18
79285;BME280;68734;50.452;11.636;2023-04-05T11:18:09;96006.03;;;2.47;39.41
79285;BME280;68734;50.452;11.636;2023-04-05T11:23:04;95994.88;;;2.85;39.57
79285;BME280;68734;50.452;11.636;2023-04-05T11:25:30;95980.47;;;2.73;39.24
79285;BME280;68734;50.452;11.636;2023-04-05T11:28:00;95989.16;;;2.40;40.40
79285;BME280;68734;50.452;11.636;2023-04-05T11:31:17;95991.41;;;3.05;39.04
79285;BME280;68734;50.452;11.636;2023-04-05T11:36:12;95983.00;;;3.08;39.98
79285;BME280;68734;50.452;11.636;2023-04-05T11:38:43;95980.13;;;3.83;40.85
79285;BME280;68734;50.452;11.636;2023-04-05T11:41:15;95980.09;;;4.09;38.28
79285;BME280;68734;50.452;11.636;2023-04-05T11:43:49;95967.75;;;4.08;38.14
79285;BME280;68734;50.452;11.636;2023-04-05T11:46:16;95971.72;;;3.99;37.74
79285;BME280;68734;50.452;11.636;2023-04-05T11:48:48;95967.41;;;3.65;37.55
79285;BME280;68734;50.452;11.636;2023-04-05T11:51:15;95968.44;;;3.50;37.36
79285;BME280;68734;50.452;11.636;2023-04-05T11:53:45;95964.97;;;3.50;38.48
79285;BME280;68734;50.452;11.636;2023-04-05T11:56:11;95954.88;;;3.12;39.44
79285;BME280;68734;50.452;11.636;2023-04-05T11:58:40;95957.34;;;3.07;38.81
79285;BME280;68734;50.452;11.636;2023-04-05T12:01:08;95961.19;;;2.84;39.48
79285;BME280;68734;50.452;11.636;2023-04-05T12:03:36;95964.41;;;2.59;40.27
79285;BME280;68734;50.452;11.636;2023-04-05T12:06:04;95956.50;;;2.25;41.19
79285;BME280;68734;50.452;11.636;2023-04-05T12:08:44;95949.16;;;2.40;41.27
79285;BME280;68734;50.452;11.636;2023-04-05T12:11:22;95942.13;;;2.19;40.70
79285;BME280;68734;50.452;11.636;2023-04-05T12:14:00;95936.00;;;2.25;41.32
79285;BME280;68734;50.452;11.636;2023-04-05T12:16:28;95951.13;;;2.18;41.16
79285;BME280;68734;50.452;11.636;2023-04-05T12:21:20;95943.63;;;1.93;41.62
79285;BME280;68734;50.452;11.636;2023-04-05T12:23:46;95941.16;;;1.92;41.77
79285;BME280;68734;50.452;11.636;2023-04-05T12:26:13;95933.75;;;1.87;40.87
79285;BME280;68734;50.452;11.636;2023-04-05T12:28:57;95937.06;;;1.89;41.04
79285;BME280;68734;50.452;11.636;2023-04-05T12:31:43;95935.28;;;2.03;40.69
79285;BME280;68734;50.452;11.636;2023-04-05T12:34:10;95935.91;;;2.05;42.38
79285;BME280;68734;50.452;11.636;2023-04-05T12:36:37;95929.38;;;2.14;40.52
79285;BME280;68734;50.452;11.636;2023-04-05T12:39:08;95926.88;;;2.06;40.26
79285;BME280;68734;50.452;11.636;2023-04-05T12:41:34;95928.72;;;1.99;40.38
79285;BME280;68734;50.452;11.636;2023-04-05T12:44:29;95924.03;;;2.08;39.66
79285;BME280;68734;50.452;11.636;2023-04-05T12:47:04;95917.47;;;2.10;40.42
79285;BME280;68734;50.452;11.636;2023-04-05T12:49:36;95911.19;;;2.25;40.89
79285;BME280;68734;50.452;11.636;2023-04-05T12:52:04;95919.56;;;2.22;39.34
79285;BME280;68734;50.452;11.636;2023-04-05T12:54:33;95916.28;;;2.19;40.03
79285;BME280;68734;50.452;11.636;2023-04-05T12:57:01;95906.25;;;2.22;40.17
79285;BME280;68734;50.452;11.636;2023-04-05T12:59:28;95914.25;;;2.22;39.94
79285;BME280;68734;50.452;11.636;2023-04-05T13:01:56;95911.00;;;2.33;40.18
79285;BME280;68734;50.452;11.636;2023-04-05T13:04:21;95913.50;;;2.48;39.89
79285;BME280;68734;50.452;11.636;2023-04-05T13:06:47;95901.22;;;2.47;39.72
79285;BME280;68734;50.452;11.636;2023-04-05T13:09:12;95906.59;;;2.80;39.75
79285;BME280;68734;50.452;11.636;2023-04-05T13:11:40;95903.50;;;2.76;39.68
79285;BME280;68734;50.452;11.636;2023-04-05T13:14:06;95908.69;;;2.91;40.33
79285;BME280;68734;50.452;11.636;2023-04-05T13:16:33;95903.34;;;3.05;38.63
79285;BME280;68734;50.452;11.636;2023-04-05T13:18:59;95892.88;;;3.23;39.70
79285;BME280;68734;50.452;11.636;2023-04-05T13:21:24;95889.78;;;3.53;38.96
79285;BME280;68734;50.452;11.636;2023-04-05T13:23:49;95890.63;;;3.33;38.33
79285;BME280;68734;50.452;11.636;2023-04-05T13:26:15;95879.94;;;3.33;37.98
79285;BME280;68734;50.452;11.636;2023-04-05T13:28:40;95882.19;;;3.36;38.21
79285;BME280;68734;50.452;11.636;2023-04-05T13:31:06;95892.06;;;3.29;37.77
79285;BME280;68734;50.452;11.636;2023-04-05T13:33:32;95890.19;;;3.36;37.95